Time;durP1;ratioP1;P1;durP2;ratioP2;P2;SDS_P1;SDS_P2;PMS_P1;PMS_P2;Temp;Humidity;BMP_temperature;BMP_pressure;BME280_temperature;BME280_humidity;BME280_pressure;Samples;Min_cycle;Max_cycle;Signal;HPM_P1;HPM_P2
2024/01/17 04:59:15;;;;;;;24.20;17.40;;;;;;;1.15;77.07;99895.09;5570863;31;77674;-54
2024/01/17 05:02:18;;;;;;;24.50;17.98;;;;;;;1.15;77.07;99895.09;5564440;32;33329;-54
2024/01/17 05:05:20;;;;;;;24.35;17.27;;;;;;;0.67;94.80;99893.47;5564256;32;33326;-55
2024/01/17 05:08:23;;;;;;;25.85;17.12;;;;;;;0.63;78.87;99893.13;5564531;32;33553;-54
2024/01/17 05:11:27;;;;;;;23.40;16.52;;;;;;;0.67;92.63;99888.19;5564272;32;33633;-54
2024/01/17 05:14:29;;;;;;;25.65;17.23;;;;;;;0.73;82.68;99889.91;5564410;32;35032;-56
2024/01/17 05:17:32;;;;;;;241.07;29.40;;;;;;;0.84;91.89;99889.13;5564036;32;33615;-56
2024/01/17 05:20:35;;;;;;;24.65;15.98;;;;;;;1.11;100.00;99881.56;5564262;32;34297;-56
2024/01/17 05:23:40;;;;;;;21.12;14.55;;;;;;;0.75;95.37;99882.56;5564202;32;34274;-56
2024/01/17 05:26:43;;;;;;;21.60;14.10;;;;;;;0.88;77.98;99890.25;5564155;32;33589;-56
2024/01/17 05:29:45;;;;;;;65.07;17.73;;;;;;;0.91;75.91;99894.28;5564209;32;34320;-56
2024/01/17 05:32:48;;;;;;;22.00;15.07;;;;;;;1.09;100.00;99883.62;5563944;32;34256;-56
2024/01/17 05:35:51;;;;;;;25.50;14.43;;;;;;;0.82;88.27;99885.09;5564104;32;34200;-56
2024/01/17 05:38:53;;;;;;;21.23;14.40;;;;;;;0.98;79.07;99892.34;5563825;32;34320;-56
2024/01/17 05:41:56;;;;;;;23.52;15.13;;;;;;;1.12;90.43;99890.28;5564006;32;34374;-56
2024/01/17 05:44:58;;;;;;;20.85;14.23;;;;;;;1.11;88.85;99899.22;5563950;32;33574;-56
2024/01/17 05:48:01;;;;;;;21.23;13.77;;;;;;;0.98;77.49;99892.34;5564079;32;34203;-56
2024/01/17 05:51:05;;;;;;;21.75;14.57;;;;;;;0.93;77.46;99876.41;5563855;32;33791;-56
2024/01/17 05:54:08;;;;;;;22.83;15.23;;;;;;;0.95;95.93;99861.13;5564024;32;33700;-56
2024/01/17 05:57:10;;;;;;;24.17;15.05;;;;;;;1.34;100.00;99872.81;5563721;32;34145;-57
2024/01/17 06:00:13;;;;;;;19.00;13.10;;;;;;;1.47;77.70;99890.25;5563907;32;33702;-56
2024/01/17 06:03:16;;;;;;;20.25;14.25;;;;;;;1.27;78.83;99889.81;5563799;32;33854;-56
2024/01/17 06:06:18;;;;;;;21.77;14.38;;;;;;;1.44;97.98;99864.31;5563838;32;34232;-56
2024/01/17 06:09:21;;;;;;;20.52;14.30;;;;;;;1.37;84.56;99847.78;5556215;32;33648;-56
2024/01/17 06:12:23;;;;;;;27.05;15.45;;;;;;;1.44;80.36;99845.81;5549473;32;33687;-57
2024/01/17 06:15:25;;;;;;;25.90;15.20;;;;;;;1.46;79.81;99864.87;5550242;32;33555;-57
2024/01/17 06:18:28;;;;;;;23.33;14.38;;;;;;;1.45;75.89;99875.66;5548969;32;34283;-56
2024/01/17 06:21:30;;;;;;;24.08;14.87;;;;;;;1.54;82.18;99869.00;5550551;32;33288;-56
2024/01/17 06:24:33;;;;;;;29.33;15.65;;;;;;;1.86;100.00;99875.47;5548946;32;34388;-54
2024/01/17 06:27:35;;;;;;;22.23;14.65;;;;;;;2.12;100.00;99858.25;5548174;32;34353;-54
2024/01/17 06:30:38;;;;;;;23.42;16.02;;;;;;;2.10;100.00;99854.22;5548097;32;33861;-54
2024/01/17 06:33:41;;;;;;;21.27;13.65;;;;;;;1.88;79.12;99856.72;5549365;32;33585;-55
2024/01/17 06:36:44;;;;;;;19.37;13.70;;;;;;;1.88;82.29;99867.28;5547079;32;34077;-55
2024/01/17 06:39:47;;;;;;;21.12;14.52;;;;;;;2.21;95.60;99873.72;5549616;32;33646;-55
2024/01/17 06:42:49;;;;;;;23.38;15.32;;;;;;;2.20;79.68;99862.34;5550455;32;33558;-55
2024/01/17 06:45:52;;;;;;;25.73;15.25;;;;;;;2.40;100.00;99859.25;5549061;32;33647;-55
2024/01/17 06:48:54;;;;;;;30.62;16.12;;;;;;;2.16;78.12;99861.22;5548885;32;33605;-55
2024/01/17 06:51:57;;;;;;;24.17;16.60;;;;;;;2.28;98.78;99877.81;5549014;32;33697;-55
2024/01/17 06:54:59;;;;;;;21.20;14.60;;;;;;;2.32;100.00;99873.66;5548151;32;33679;-55
2024/01/17 06:58:03;;;;;;;26.65;15.02;;;;;;;2.41;95.39;99873.25;5548702;32;34439;-54
2024/01/17 07:01:05;;;;;;;23.95;14.10;;;;;;;2.64;91.21;99864.37;5549836;32;33645;-55
2024/01/17 07:04:08;;;;;;;24.42;13.35;;;;;;;2.14;81.62;99851.91;5549250;32;34260;-55
2024/01/17 07:07:12;;;;;;;26.45;14.68;;;;;;;2.30;94.68;99851.94;5548683;32;34462;-55
2024/01/17 07:10:14;;;;;;;22.87;13.80;;;;;;;2.41;86.53;99855.53;5549539;32;33600;-55
2024/01/17 07:13:17;;;;;;;20.80;13.57;;;;;;;2.37;73.00;99848.34;5542100;32;34306;-54
2024/01/17 07:16:20;;;;;;;20.55;14.18;;;;;;;2.39;79.33;99852.34;5539145;32;33635;-55
2024/01/17 07:19:23;;;;;;;21.25;13.68;;;;;;;2.38;79.61;99845.44;5547908;32;34365;-55
2024/01/17 07:22:25;;;;;;;21.02;13.82;;;;;;;2.65;95.61;99831.56;5545875;32;34276;-54
2024/01/17 07:25:27;;;;;;;23.98;13.75;;;;;;;2.50;73.01;99814.44;5547560;32;34285;-55
2024/01/17 07:28:30;;;;;;;23.30;12.70;;;;;;;2.51;77.06;99823.97;5545681;32;33716;-56
2024/01/17 07:31:32;;;;;;;18.92;13.00;;;;;;;2.62;91.40;99819.66;5544066;32;34362;-55
2024/01/17 07:34:35;;;;;;;21.37;12.43;;;;;;;2.47;74.37;99825.50;5549676;32;33645;-57
2024/01/17 07:37:37;;;;;;;21.35;14.10;;;;;;;2.27;72.67;99830.44;5541020;32;33606;-55
2024/01/17 07:40:40;;;;;;;20.08;14.43;;;;;;;2.39;78.19;99814.53;5548034;32;34332;-59
2024/01/17 07:43:43;;;;;;;22.90;14.48;;;;;;;2.98;100.00;99813.03;5548001;32;33794;-59
2024/01/17 07:46:47;;;;;;;22.60;14.32;;;;;;;2.93;93.64;99798.91;5548343;32;33652;-59
2024/01/17 07:49:49;;;;;;;20.60;12.57;;;;;;;3.16;100.00;99801.34;5544441;32;33603;-59
2024/01/17 07:52:52;;;;;;;19.42;12.50;;;;;;;3.20;82.36;99806.97;5545059;32;33522;-60
2024/01/17 07:55:55;;;;;;;20.88;13.65;;;;;;;3.02;71.01;99800.09;5544098;32;34684;-59
2024/01/17 07:58:58;;;;;;;94.45;18.87;;;;;;;3.13;100.00;99809.78;5546764;32;33491;-59
2024/01/17 08:02:02;;;;;;;19.60;14.23;;;;;;;3.20;84.08;99802.44;5547463;32;33551;-60
2024/01/17 08:05:04;;;;;;;22.70;15.57;;;;;;;2.90;91.24;99794.09;5539142;32;33571;-58
2024/01/17 08:08:06;;;;;;;20.60;13.80;;;;;;;3.37;100.00;99798.94;5543604;32;33677;-59
2024/01/17 08:11:09;;;;;;;23.55;14.57;;;;;;;3.20;77.25;99797.16;5546973;32;34269;-59
2024/01/17 08:14:11;;;;;;;20.45;14.27;;;;;;;2.87;90.71;99810.47;5536373;32;34299;-60
2024/01/17 08:17:14;;;;;;;20.77;13.77;;;;;;;2.92;100.00;99800.78;5547328;32;34368;-57
2024/01/17 08:20:19;;;;;;;28.38;17.05;;;;;;;3.36;93.66;99797.34;5541398;32;33363;-57
2024/01/17 08:23:21;;;;;;;22.85;15.00;;;;;;;3.45;92.94;99796.69;5540576;32;33154;-57
2024/01/17 08:26:23;;;;;;;20.90;14.23;;;;;;;2.98;90.06;99801.63;5539907;32;33738;-57
2024/01/17 08:29:26;;;;;;;22.13;15.20;;;;;;;3.24;88.84;99800.12;5540548;32;33618;-56
2024/01/17 08:32:29;;;;;;;23.20;14.93;;;;;;;3.34;100.00;99797.59;5546373;32;34388;-57
2024/01/17 08:35:31;;;;;;;26.67;16.35;;;;;;;3.18;98.96;99799.28;5546027;32;33639;-58
2024/01/17 08:38:35;;;;;;;23.42;15.57;;;;;;;3.52;100.00;99792.00;5548737;32;34241;-57
2024/01/17 08:41:40;;;;;;;21.55;14.23;;;;;;;3.10;77.86;99786.44;5548956;32;33571;-57
2024/01/17 08:44:45;;;;;;;23.10;14.85;;;;;;;3.24;99.13;99802.75;5548830;32;33598;-57
2024/01/17 08:47:48;;;;;;;21.37;14.32;;;;;;;3.77;100.00;99785.34;5548190;32;34325;-58
2024/01/17 08:50:51;;;;;;;23.67;15.02;;;;;;;3.27;85.58;99784.53;5545098;32;34391;-57
2024/01/17 08:53:54;;;;;;;21.48;14.38;;;;;;;3.39;100.00;99780.97;5544881;32;34341;-57
2024/01/17 08:56:57;;;;;;;21.80;15.45;;;;;;;3.04;76.63;99780.25;5546101;32;34234;-57
2024/01/17 08:59:59;;;;;;;19.40;13.55;;;;;;;3.30;96.55;99775.28;5541239;32;33668;-57
2024/01/17 09:03:02;;;;;;;20.20;13.50;;;;;;;3.17;78.76;99775.66;5547646;32;33701;-57
2024/01/17 09:06:05;;;;;;;19.40;13.40;;;;;;;3.42;98.60;99783.12;5543088;32;34275;-57
2024/01/17 09:09:11;;;;;;;23.40;15.15;;;;;;;3.52;100.00;99768.12;5546968;32;34284;-57
2024/01/17 09:12:17;;;;;;;;;;;;;;;3.44;76.43;99775.72;5545338;32;34368;-57
2024/01/17 09:15:19;;;;;;;19.33;13.85;;;;;;;3.45;87.27;99764.09;5546346;32;34601;-57
2024/01/17 09:18:22;;;;;;;20.15;13.57;;;;;;;3.62;100.00;99754.19;5546977;32;34336;-57
2024/01/17 09:21:25;;;;;;;23.48;14.52;;;;;;;3.12;80.81;99752.56;5547769;32;33304;-57
2024/01/17 09:24:30;;;;;;;23.70;14.45;;;;;;;3.41;100.00;99736.47;5540397;32;34315;-57
2024/01/17 09:27:32;;;;;;;20.33;14.10;;;;;;;3.29;94.37;99733.97;5543221;32;33622;-57
2024/01/17 09:30:34;;;;;;;20.02;14.82;;;;;;;3.08;97.55;99729.47;5547475;32;33273;-57
2024/01/17 09:33:37;;;;;;;19.00;14.57;;;;;;;3.32;100.00;99736.13;5538939;32;33382;-57
2024/01/17 09:36:39;;;;;;;21.98;13.85;;;;;;;3.03;84.65;99732.84;5543978;32;33632;-57
2024/01/17 09:39:43;;;;;;;18.10;12.55;;;;;;;3.61;100.00;99704.06;5533619;32;33734;-57
2024/01/17 09:42:45;;;;;;;99.43;19.83;;;;;;;3.63;100.00;99694.81;5536902;32;33576;-57
2024/01/17 09:45:54;;;;;;;20.02;13.88;;;;;;;3.63;100.00;99704.63;5549172;32;33843;-57
2024/01/17 09:48:56;;;;;;;22.45;15.07;;;;;;;3.19;86.73;99716.09;5550149;32;33763;-57
2024/01/17 09:52:05;;;;;;;445.60;50.30;;;;;;;3.43;100.00;99682.19;5541273;32;34169;-57
2024/01/17 09:55:08;;;;;;;22.30;14.63;;;;;;;3.91;100.00;99679.72;5544941;32;34342;-52
2024/01/17 09:58:12;;;;;;;21.65;15.90;;;;;;;3.87;99.98;99650.22;5549154;32;33797;-54
2024/01/17 10:01:16;;;;;;;20.00;13.77;;;;;;;3.73;87.99;99636.59;5548314;32;34235;-52
2024/01/17 10:04:20;;;;;;;23.77;15.20;;;;;;;4.04;100.00;99641.31;5546278;32;34397;-53
2024/01/17 10:07:23;;;;;;;21.75;15.55;;;;;;;3.96;100.00;99634.66;5546512;32;34310;-52
2024/01/17 10:10:27;;;;;;;23.90;15.15;;;;;;;3.97;100.00;99617.69;5545564;32;34346;-54
2024/01/17 10:13:30;;;;;;;21.05;14.05;;;;;;;3.98;100.00;99619.31;5539560;32;33686;-54
2024/01/17 10:16:33;;;;;;;20.33;14.52;;;;;;;3.59;90.75;99616.09;5545163;32;33792;-53
2024/01/17 10:19:35;;;;;;;19.87;13.85;;;;;;;3.13;81.72;99611.16;5548880;32;33700;-54
2024/01/17 10:22:39;;;;;;;23.85;14.87;;;;;;;2.74;81.54;99605.97;5549086;32;33784;-54
2024/01/17 10:25:42;;;;;;;22.35;16.25;;;;;;;3.04;98.33;99602.06;5541846;32;33692;-53
2024/01/17 10:28:45;;;;;;;22.05;15.57;;;;;;;3.41;100.00;99604.00;5536424;32;33681;-53
2024/01/17 10:31:48;;;;;;;22.58;17.10;;;;;;;3.61;100.00;99582.97;5545452;32;33664;-53
2024/01/17 10:34:51;;;;;;;21.95;16.73;;;;;;;3.58;100.00;99580.84;5547345;32;33616;-54
2024/01/17 10:37:54;;;;;;;21.35;16.05;;;;;;;4.14;100.00;99569.78;5548858;32;34468;-53
2024/01/17 10:41:06;;;;;;;22.33;16.73;;;;;;;3.90;100.00;99566.72;5547860;32;33838;-53
2024/01/17 10:44:09;;;;;;;22.50;16.05;;;;;;;3.79;95.68;99565.06;5547588;32;33672;-55
2024/01/17 10:47:11;;;;;;;23.55;15.75;;;;;;;3.95;100.00;99567.56;5531356;32;33591;-55
2024/01/17 10:50:17;;;;;;;22.50;17.00;;;;;;;3.42;95.44;99544.66;5533092;32;33823;-55
2024/01/17 10:53:21;;;;;;;22.00;16.48;;;;;;;3.44;97.54;99553.13;5536394;32;33221;-53
2024/01/17 10:56:27;;;;;;;24.87;17.85;;;;;;;3.78;100.00;99521.06;5533064;32;34406;-54
2024/01/17 10:59:29;;;;;;;25.20;17.75;;;;;;;3.62;94.69;99520.16;5546429;32;33610;-54
2024/01/17 11:02:34;;;;;;;25.40;17.80;;;;;;;3.47;99.24;99505.75;5545328;32;33424;-54
2024/01/17 11:05:56;;;;;;;25.45;18.98;;;;;;;3.51;99.35;99508.72;5546954;32;33708;-55
2024/01/17 11:09:00;;;;;;;27.70;19.27;;;;;;;3.68;100.00;99482.03;5540034;32;33669;-55
2024/01/17 11:12:05;;;;;;;28.27;19.50;;;;;;;3.98;100.00;99487.50;5546950;32;34708;-56
2024/01/17 11:15:10;;;;;;;29.02;19.30;;;;;;;3.97;100.00;99485.09;5536555;32;33700;-55
2024/01/17 11:18:13;;;;;;;25.50;19.27;;;;;;;4.00;100.00;99477.41;5540862;32;34393;-55
2024/01/17 11:21:18;;;;;;;25.17;18.77;;;;;;;4.17;100.00;99471.09;5533919;32;34308;-55
2024/01/17 11:24:32;;;;;;;23.33;17.85;;;;;;;4.10;100.00;99441.38;5537974;32;33736;-55
2024/01/17 11:28:14;;;;;;;24.10;17.73;;;;;;;4.08;100.00;99438.22;5538314;32;33762;-55
2024/01/17 11:31:17;;;;;;;27.92;19.65;;;;;;;3.68;96.34;99443.06;5534917;32;33765;-55
2024/01/17 11:34:19;;;;;;;28.60;19.02;;;;;;;3.96;100.00;99428.59;5542514;32;34272;-55
2024/01/17 11:37:38;;;;;;;25.30;19.80;;;;;;;3.57;100.00;99428.16;5545975;32;34172;-55
2024/01/17 11:40:41;;;;;;;26.23;18.08;;;;;;;3.91;100.00;99417.19;5547624;32;34239;-55
2024/01/17 11:43:43;;;;;;;27.48;18.08;;;;;;;3.72;89.00;99424.81;5547445;32;33745;-56
2024/01/17 11:46:51;;;;;;;29.80;19.73;;;;;;;3.86;100.00;99414.53;5537402;32;33947;-55
2024/01/17 11:49:54;;;;;;;28.80;19.62;;;;;;;4.38;100.00;99418.94;5532464;32;33603;-55
2024/01/17 11:52:57;;;;;;;28.58;20.15;;;;;;;4.10;100.00;99402.41;5542360;32;33891;-55
2024/01/17 11:56:04;;;;;;;28.98;19.58;;;;;;;4.47;100.00;99386.31;5543293;32;34073;-56
2024/01/17 11:59:12;;;;;;;29.60;19.90;;;;;;;4.34;100.00;99388.66;5545306;32;34306;-56
2024/01/17 12:02:35;;;;;;;29.20;18.90;;;;;;;4.28;100.00;99382.56;5543914;32;33607;-55
2024/01/17 12:05:38;;;;;;;39.80;19.92;;;;;;;4.18;100.00;99388.63;5542360;32;33070;-56
2024/01/17 12:08:41;;;;;;;31.00;21.00;;;;;;;3.74;85.86;99377.59;5545543;32;34160;-55
2024/01/17 12:11:48;;;;;;;33.40;21.87;;;;;;;3.86;100.00;99369.44;5536563;32;33908;-55
2024/01/17 12:14:50;;;;;;;28.15;20.02;;;;;;;4.29;100.00;99362.13;5534034;32;33602;-55
2024/01/17 12:17:53;;;;;;;27.33;19.62;;;;;;;4.30;100.00;99345.13;5546901;32;33657;-55
2024/01/17 12:20:56;;;;;;;28.65;19.92;;;;;;;4.56;100.00;99346.75;5539236;32;33675;-55
2024/01/17 12:23:58;;;;;;;27.45;19.42;;;;;;;4.70;100.00;99329.25;5541338;32;33646;-55
2024/01/17 12:27:05;;;;;;;26.48;21.10;;;;;;;4.60;100.00;99321.28;5544036;32;33744;-55
2024/01/17 12:30:08;;;;;;;31.10;21.05;;;;;;;4.39;100.00;99324.97;5535677;32;34300;-55
2024/01/17 12:33:11;;;;;;;30.00;21.50;;;;;;;3.90;82.25;99336.84;5531012;32;33658;-55
2024/01/17 12:36:13;;;;;;;30.52;22.65;;;;;;;4.23;100.00;99309.03;5545977;32;33734;-55
2024/01/17 12:39:16;;;;;;;28.62;21.35;;;;;;;4.51;100.00;99292.87;5546263;32;33765;-55
2024/01/17 12:42:19;;;;;;;29.08;20.92;;;;;;;4.62;100.00;99294.47;5543147;32;34499;-55
2024/01/17 12:45:22;;;;;;;28.92;21.10;;;;;;;4.33;100.00;99297.66;5542011;32;34436;-55
2024/01/17 12:48:28;;;;;;;26.67;20.10;;;;;;;4.06;92.19;99291.78;5546730;32;33443;-55
2024/01/17 12:51:34;;;;;;;27.73;20.42;;;;;;;4.41;100.00;99291.03;5541913;32;33689;-55
2024/01/17 12:54:38;;;;;;;28.48;20.48;;;;;;;4.82;100.00;99273.19;5530340;32;34460;-55
2024/01/17 12:57:41;;;;;;;29.00;19.83;;;;;;;4.87;100.00;99269.75;5537288;32;34248;-55
2024/01/17 13:00:43;;;;;;;26.75;18.83;;;;;;;4.38;85.67;99270.34;5546379;32;34283;-55
2024/01/17 13:03:59;;;;;;;25.17;18.35;;;;;;;3.93;81.96;99269.25;5539469;32;33683;-55
2024/01/17 13:07:01;;;;;;;24.73;18.77;;;;;;;4.06;96.82;99265.28;5535696;32;33716;-55
2024/01/17 13:10:17;;;;;;;25.08;17.40;;;;;;;4.17;89.70;99267.69;5537832;32;33952;-55
2024/01/17 13:13:21;;;;;;;26.70;18.17;;;;;;;4.53;100.00;99258.91;5545236;32;33590;-55
2024/01/17 13:16:29;;;;;;;25.42;18.20;;;;;;;4.60;100.00;99257.56;5547061;32;34273;-55
2024/01/17 13:19:32;;;;;;;23.83;18.12;;;;;;;4.63;100.00;99257.00;5546797;32;33834;-56
2024/01/17 13:22:34;;;;;;;23.90;17.27;;;;;;;4.58;100.00;99256.25;5544979;32;33581;-55
2024/01/17 13:25:37;;;;;;;24.52;16.15;;;;;;;4.55;100.00;99251.47;5539751;32;33652;-55
2024/01/17 13:28:39;;;;;;;25.85;17.00;;;;;;;4.72;100.00;99244.78;5541010;32;33693;-55
2024/01/17 13:31:41;;;;;;;23.98;16.67;;;;;;;4.76;100.00;99242.38;5541513;32;33629;-56
2024/01/17 13:34:44;;;;;;;22.55;16.90;;;;;;;5.01;100.00;99244.19;5547462;32;34321;-55
2024/01/17 13:37:48;;;;;;;24.70;17.48;;;;;;;5.00;100.00;99223.19;5541635;32;33671;-55
2024/01/17 13:40:50;;;;;;;24.00;17.85;;;;;;;5.07;100.00;99215.75;5537108;32;33214;-55
2024/01/17 13:43:56;;;;;;;23.35;17.17;;;;;;;5.32;100.00;99225.47;5546940;32;34315;-55
2024/01/17 13:46:59;;;;;;;20.85;15.38;;;;;;;4.79;95.65;99222.47;5540470;32;34421;-55
2024/01/17 13:50:10;;;;;;;23.35;15.95;;;;;;;4.75;97.80;99211.59;5535802;32;33567;-56
2024/01/17 13:53:28;;;;;;;20.77;16.25;;;;;;;4.83;100.00;99219.00;5544603;32;34070;-55
2024/01/17 13:56:30;;;;;;;24.27;17.45;;;;;;;4.39;93.86;99219.62;5537551;32;33747;-55
2024/01/17 13:59:35;;;;;;;23.23;17.15;;;;;;;4.61;100.00;99216.69;5540787;32;33745;-55
2024/01/17 14:02:38;;;;;;;22.08;15.98;;;;;;;4.16;87.14;99217.53;5540887;32;34395;-56
2024/01/17 14:05:41;;;;;;;23.10;16.60;;;;;;;4.07;89.19;99225.22;5546820;32;33581;-55
2024/01/17 14:08:44;;;;;;;22.80;16.65;;;;;;;4.76;100.00;99207.09;5549119;32;33678;-55
2024/01/17 14:11:48;;;;;;;25.05;17.55;;;;;;;4.72;100.00;99198.88;5549125;32;34459;-55
2024/01/17 14:14:51;;;;;;;23.48;17.20;;;;;;;4.58;100.00;99193.34;5538908;32;33247;-55
2024/01/17 14:17:54;;;;;;;19.62;15.55;;;;;;;4.83;100.00;99189.78;5545840;32;33676;-55
2024/01/17 14:20:56;;;;;;;21.73;17.45;;;;;;;4.55;96.50;99185.91;5544644;32;33754;-56
2024/01/17 14:23:59;;;;;;;22.05;16.52;;;;;;;4.43;100.00;99180.88;5547399;32;33655;-56
2024/01/17 14:27:03;;;;;;;25.05;18.12;;;;;;;4.19;94.54;99180.66;5544757;32;33606;-55
2024/01/17 14:30:07;;;;;;;27.67;17.30;;;;;;;3.86;94.76;99179.34;5539572;32;33747;-55
2024/01/17 14:33:09;;;;;;;25.17;18.17;;;;;;;4.11;100.00;99173.25;5550015;32;33783;-55
2024/01/17 14:36:12;;;;;;;27.58;18.60;;;;;;;4.28;100.00;99175.63;5544257;32;34222;-53
2024/01/17 14:39:20;;;;;;;26.27;18.55;;;;;;;4.19;100.00;99175.34;5538486;32;34438;-53
2024/01/17 14:42:24;;;;;;;23.75;17.73;;;;;;;4.10;100.00;99163.69;5536784;32;33518;-53
2024/01/17 14:45:26;;;;;;;23.58;17.77;;;;;;;4.03;97.43;99170.34;5548297;32;34421;-53
2024/01/17 14:48:29;;;;;;;30.62;19.85;;;;;;;4.24;100.00;99150.69;5543931;32;34188;-54
2024/01/17 14:51:31;;;;;;;30.25;18.83;;;;;;;4.18;100.00;99157.88;5530164;32;33630;-53
2024/01/17 14:54:34;;;;;;;25.80;19.20;;;;;;;4.44;100.00;99152.50;5536496;32;34426;-55
2024/01/17 14:57:37;;;;;;;26.05;18.60;;;;;;;4.06;92.12;99149.38;5530670;32;33287;-53
2024/01/17 15:00:40;;;;;;;69.03;21.92;;;;;;;3.95;91.17;99155.75;5544903;32;33742;-53
2024/01/17 15:03:42;;;;;;;26.87;21.12;;;;;;;4.89;100.00;99124.97;5544986;32;34004;-53
2024/01/17 15:06:45;;;;;;;29.67;21.10;;;;;;;4.28;99.72;99143.78;5546620;32;33712;-53
2024/01/17 15:09:47;;;;;;;31.12;20.92;;;;;;;3.83;100.00;99157.88;5536701;32;33643;-53
2024/01/17 15:12:51;;;;;;;31.00;20.65;;;;;;;4.30;100.00;99138.19;5537842;32;34376;-54
2024/01/17 15:15:53;;;;;;;28.33;19.25;;;;;;;4.31;100.00;99145.91;5549358;32;34353;-53
2024/01/17 15:18:56;;;;;;;26.48;19.55;;;;;;;3.99;100.00;99136.41;5548215;32;33912;-53
2024/01/17 15:21:58;;;;;;;26.95;19.35;;;;;;;4.21;100.00;99152.03;5547200;32;34366;-53
2024/01/17 15:25:01;;;;;;;29.48;20.30;;;;;;;3.78;95.94;99168.50;5549531;32;33756;-53
2024/01/17 15:28:04;;;;;;;26.52;19.90;;;;;;;4.16;100.00;99156.53;5539750;32;33776;-54
2024/01/17 15:31:07;;;;;;;25.60;20.17;;;;;;;4.59;100.00;99135.75;5548592;32;33145;-54
2024/01/17 15:34:09;;;;;;;28.33;20.65;;;;;;;4.33;100.00;99127.06;5534703;32;33652;-53
2024/01/17 15:37:12;;;;;;;27.15;20.77;;;;;;;4.71;100.00;99134.38;5530259;32;33762;-54
2024/01/17 15:40:14;;;;;;;30.27;19.85;;;;;;;4.04;97.69;99124.19;5529596;32;33835;-54
2024/01/17 15:43:17;;;;;;;30.60;22.10;;;;;;;4.02;97.64;99131.63;5543080;32;33709;-53
2024/01/17 15:46:21;;;;;;;29.92;21.98;;;;;;;4.13;100.00;99131.34;5549469;32;34371;-55
2024/01/17 15:49:24;;;;;;;27.65;21.25;;;;;;;4.00;100.00;99126.56;5547170;32;33631;-55
2024/01/17 15:52:26;;;;;;;29.48;22.62;;;;;;;4.08;100.00;99127.91;5537916;32;34291;-54
2024/01/17 15:55:29;;;;;;;32.22;22.70;;;;;;;3.95;100.00;99116.78;5530467;32;33972;-55
2024/01/17 15:58:31;;;;;;;31.77;22.48;;;;;;;4.13;100.00;99119.94;5530239;32;34172;-55
2024/01/17 16:01:33;;;;;;;28.12;21.70;;;;;;;4.05;100.00;99113.31;5532310;32;34375;-55
2024/01/17 16:04:36;;;;;;;29.45;21.67;;;;;;;3.90;100.00;99100.88;5534658;32;33705;-55
2024/01/17 16:07:38;;;;;;;29.87;22.13;;;;;;;3.71;98.69;99100.63;5530978;32;33659;-55
2024/01/17 16:10:41;;;;;;;26.58;20.92;;;;;;;3.62;97.11;99091.63;5538010;32;34315;-55
2024/01/17 16:13:44;;;;;;;30.95;22.37;;;;;;;3.84;97.16;99099.31;5548773;32;33336;-55
2024/01/17 16:16:52;;;;;;;30.62;23.20;;;;;;;4.29;100.00;99100.25;5544744;32;33612;-55
2024/01/17 16:19:55;;;;;;;33.33;23.67;;;;;;;3.93;100.00;99096.91;5546151;32;34450;-55
2024/01/17 16:23:00;;;;;;;31.05;23.25;;;;;;;3.99;100.00;99096.63;5547927;32;34384;-55
2024/01/17 16:26:03;;;;;;;33.97;24.50;;;;;;;4.27;100.00;99096.28;5549672;32;34015;-55
2024/01/17 16:29:06;;;;;;;31.60;23.50;;;;;;;4.58;100.00;99084.50;5549666;32;33620;-55
2024/01/17 16:32:08;;;;;;;30.52;22.90;;;;;;;4.56;100.00;99088.50;5540861;32;33607;-55
2024/01/17 16:35:11;;;;;;;32.92;23.02;;;;;;;4.65;100.00;99076.25;5532422;32;34368;-55
2024/01/17 16:38:13;;;;;;;32.25;23.40;;;;;;;4.49;100.00;99072.88;5541113;32;33648;-55
2024/01/17 16:41:15;;;;;;;31.62;23.30;;;;;;;4.22;93.35;99063.41;5541982;32;34386;-56
2024/01/17 16:44:18;;;;;;;49.22;39.53;;;;;;;4.17;100.00;99062.63;5543462;32;33980;-55
2024/01/17 16:47:20;;;;;;;33.22;23.67;;;;;;;4.04;97.53;99052.59;5533996;32;34279;-55
2024/01/17 16:50:23;;;;;;;30.65;24.23;;;;;;;4.30;100.00;99062.06;5539370;32;34294;-55
2024/01/17 16:53:25;;;;;;;33.05;23.55;;;;;;;4.76;100.00;99050.44;5547863;32;34331;-55
